createdAt,value
2017-10-05T00:01:49.256Z,11.10
2017-10-05T00:04:15.875Z,11.10
2017-10-05T00:06:42.616Z,11.10
2017-10-05T00:09:09.155Z,11.10
2017-10-05T00:11:35.847Z,11.00
2017-10-05T00:14:02.432Z,11.10
2017-10-05T00:16:29.070Z,11.00
2017-10-05T00:18:56.051Z,11.00
2017-10-05T00:21:22.851Z,11.00
2017-10-05T00:23:49.307Z,11.00
2017-10-05T00:26:16.205Z,11.00
2017-10-05T00:28:43.523Z,11.00
2017-10-05T00:31:10.219Z,11.00
2017-10-05T00:33:37.651Z,11.00
2017-10-05T00:36:04.248Z,11.00
2017-10-05T00:38:31.254Z,11.00
2017-10-05T00:41:01.696Z,11.00
2017-10-05T00:43:28.429Z,10.90
2017-10-05T00:45:55.142Z,11.00
2017-10-05T00:48:21.933Z,11.00
2017-10-05T00:50:48.533Z,11.00
2017-10-05T00:53:15.120Z,11.00
2017-10-05T00:55:41.716Z,11.00
2017-10-05T00:58:08.338Z,11.00
2017-10-05T01:00:35.417Z,11.00
2017-10-05T01:03:02.071Z,11.00
2017-10-05T01:05:28.708Z,11.00
2017-10-05T01:07:55.969Z,11.10
2017-10-05T01:10:22.686Z,11.00
2017-10-05T01:12:49.360Z,11.00
2017-10-05T01:15:16.399Z,11.00
2017-10-05T01:17:43.209Z,11.00
2017-10-05T01:20:10.271Z,11.00
2017-10-05T01:22:36.926Z,11.00
2017-10-05T01:25:03.564Z,11.00
2017-10-05T01:27:30.244Z,11.00
2017-10-05T01:29:57.068Z,11.00
2017-10-05T01:32:23.624Z,11.00
2017-10-05T01:34:50.257Z,11.00
2017-10-05T01:37:17.645Z,11.00
2017-10-05T01:39:44.305Z,10.90
2017-10-05T01:42:11.728Z,10.90
2017-10-05T01:44:38.571Z,10.90
2017-10-05T01:47:05.198Z,10.90
2017-10-05T01:49:32.595Z,10.80
2017-10-05T01:51:59.702Z,10.80
2017-10-05T01:54:26.441Z,10.80
2017-10-05T01:56:52.961Z,10.80
2017-10-05T01:59:20.377Z,10.90
2017-10-05T02:01:47.099Z,10.80
2017-10-05T02:04:13.858Z,10.90
2017-10-05T02:06:41.215Z,10.90
2017-10-05T02:09:07.853Z,11.00
2017-10-05T02:11:34.849Z,11.00
2017-10-05T02:14:02.361Z,10.90
2017-10-05T02:16:29.202Z,10.90
2017-10-05T02:18:55.812Z,10.90
2017-10-05T02:21:22.758Z,10.80
2017-10-05T02:23:50.132Z,10.60
2017-10-05T02:26:17.594Z,10.60
2017-10-05T02:28:44.238Z,10.60
2017-10-05T02:31:10.961Z,10.60
2017-10-05T02:33:37.643Z,10.60
2017-10-05T02:36:04.534Z,10.50
2017-10-05T02:38:31.247Z,10.50
2017-10-05T02:40:58.034Z,10.50
2017-10-05T02:43:24.885Z,10.50
2017-10-05T02:45:51.590Z,10.50
2017-10-05T02:48:18.306Z,10.40
2017-10-05T02:50:45.292Z,10.40
2017-10-05T02:53:12.048Z,10.40
2017-10-05T02:55:38.731Z,10.40
2017-10-05T02:58:05.409Z,10.30
2017-10-05T03:00:32.175Z,10.30
2017-10-05T03:02:59.007Z,10.30
2017-10-05T03:05:25.780Z,10.10
2017-10-05T03:07:52.552Z,10.10
2017-10-05T03:10:19.343Z,10.10
2017-10-05T03:12:46.207Z,10.10
2017-10-05T03:15:12.962Z,10.10
2017-10-05T03:17:39.583Z,10.10
2017-10-05T03:20:06.418Z,10.10
2017-10-05T03:22:33.728Z,10.10
2017-10-05T03:25:00.409Z,10.10
2017-10-05T03:27:27.240Z,10.10
2017-10-05T03:29:53.987Z,10.00
2017-10-05T03:32:21.353Z,10.10
2017-10-05T03:34:48.128Z,10.10
2017-10-05T03:37:14.800Z,10.10
2017-10-05T03:39:41.470Z,10.10
2017-10-05T03:42:08.809Z,10.00
2017-10-05T03:44:35.504Z,9.90
2017-10-05T03:47:02.328Z,10.00
2017-10-05T03:49:29.256Z,9.90
2017-10-05T03:51:56.902Z,9.90
2017-10-05T03:54:24.473Z,9.80
2017-10-05T03:56:51.424Z,9.80
2017-10-05T03:59:18.209Z,9.80
2017-10-05T04:01:45.033Z,9.80
2017-10-05T04:04:11.921Z,9.80
2017-10-05T04:06:38.714Z,9.80
2017-10-05T04:09:05.476Z,9.70
2017-10-05T04:11:32.875Z,9.60
2017-10-05T04:13:59.509Z,9.60
2017-10-05T04:16:26.361Z,9.60
2017-10-05T04:18:53.195Z,9.60
2017-10-05T04:21:19.887Z,9.50
2017-10-05T04:23:46.467Z,9.50
2017-10-05T04:26:13.133Z,9.40
2017-10-05T04:28:39.782Z,9.40
2017-10-05T04:31:06.614Z,9.50
2017-10-05T04:33:33.264Z,9.40
2017-10-05T04:35:59.940Z,9.40
2017-10-05T04:38:26.538Z,9.30
2017-10-05T04:40:53.591Z,9.30
2017-10-05T04:43:20.287Z,9.30
2017-10-05T04:45:47.666Z,9.20
2017-10-05T04:48:14.355Z,9.10
2017-10-05T04:50:41.833Z,9.20
2017-10-05T04:53:08.482Z,9.10
2017-10-05T04:55:35.163Z,9.10
2017-10-05T04:58:02.893Z,9.10
2017-10-05T05:00:29.769Z,9.00
2017-10-05T05:02:56.654Z,9.10
2017-10-05T05:05:23.495Z,9.10
2017-10-05T05:07:50.067Z,9.10
2017-10-05T05:10:16.915Z,9.00
2017-10-05T05:12:43.751Z,9.00
2017-10-05T05:15:10.538Z,8.90
2017-10-05T05:17:37.377Z,8.90
2017-10-05T05:20:04.204Z,8.90
2017-10-05T05:22:30.988Z,8.80
2017-10-05T05:24:58.487Z,8.90
2017-10-05T05:27:25.180Z,8.90
2017-10-05T05:29:51.770Z,8.90
2017-10-05T05:32:18.594Z,8.90
2017-10-05T05:34:45.411Z,8.90
2017-10-05T05:37:12.057Z,8.90
2017-10-05T05:39:38.698Z,9.00
2017-10-05T05:42:05.324Z,8.90
2017-10-05T05:44:31.977Z,8.80
2017-10-05T05:46:59.030Z,8.80
2017-10-05T05:49:25.679Z,8.80
2017-10-05T05:51:52.256Z,8.80
2017-10-05T05:54:19.610Z,8.90
2017-10-05T05:56:47.092Z,9.00
2017-10-05T05:59:13.931Z,8.90
2017-10-05T06:01:40.726Z,9.00
2017-10-05T06:04:07.563Z,9.00
2017-10-05T06:06:34.423Z,9.00
2017-10-05T06:09:01.240Z,9.10
2017-10-05T06:11:27.887Z,9.10
2017-10-05T06:13:54.520Z,9.10
2017-10-05T06:16:21.371Z,9.10
2017-10-05T06:18:48.016Z,9.10
2017-10-05T06:21:14.912Z,9.10
2017-10-05T06:23:53.554Z,9.00
2017-10-05T06:26:25.373Z,9.00
2017-10-05T06:28:52.052Z,9.00
2017-10-05T06:31:18.890Z,9.00
2017-10-05T06:33:45.600Z,9.00
2017-10-05T06:36:12.297Z,9.00
2017-10-05T06:38:38.980Z,9.00
2017-10-05T06:41:05.599Z,9.00
2017-10-05T06:43:32.381Z,9.10
2017-10-05T06:45:58.944Z,9.00
2017-10-05T06:48:25.554Z,9.00
2017-10-05T06:50:52.307Z,9.00
2017-10-05T06:53:19.067Z,9.00
2017-10-05T06:55:45.665Z,9.00
2017-10-05T06:58:12.396Z,9.10
2017-10-05T07:00:39.150Z,9.10
2017-10-05T07:03:05.750Z,9.10
2017-10-05T07:05:32.319Z,9.20
2017-10-05T07:07:59.696Z,9.40
2017-10-05T07:10:27.302Z,9.50
2017-10-05T07:12:54.123Z,9.50
2017-10-05T07:15:20.849Z,9.50
2017-10-05T07:17:47.654Z,9.50
2017-10-05T07:20:22.011Z,9.60
2017-10-05T07:22:48.644Z,9.60
2017-10-05T07:25:15.255Z,9.60
2017-10-05T07:27:42.239Z,9.60
2017-10-05T07:30:08.909Z,9.60
2017-10-05T07:32:35.765Z,9.60
2017-10-05T07:35:02.635Z,9.70
2017-10-05T07:37:29.297Z,9.70
2017-10-05T07:39:56.138Z,9.70
2017-10-05T07:42:22.881Z,9.70
2017-10-05T07:44:49.728Z,9.80
2017-10-05T07:47:17.403Z,9.80
2017-10-05T07:49:44.123Z,9.70
2017-10-05T07:52:10.925Z,9.80
2017-10-05T07:54:37.676Z,9.80
2017-10-05T07:57:04.540Z,9.80
2017-10-05T07:59:31.310Z,9.90
2017-10-05T08:01:58.058Z,9.90
2017-10-05T08:04:25.067Z,10.00
2017-10-05T08:06:51.899Z,9.90
2017-10-05T08:09:18.600Z,9.80
2017-10-05T08:11:45.397Z,9.90
2017-10-05T08:14:12.123Z,9.90
2017-10-05T08:16:39.000Z,9.80
2017-10-05T08:19:06.014Z,9.80
2017-10-05T08:21:32.656Z,9.90
2017-10-05T08:23:59.296Z,9.80
2017-10-05T08:26:26.156Z,9.80
2017-10-05T08:28:53.065Z,9.90
2017-10-05T08:31:20.642Z,9.80
2017-10-05T08:33:48.111Z,9.80
2017-10-05T08:36:14.808Z,9.70
2017-10-05T08:38:41.543Z,9.70
2017-10-05T08:41:09.063Z,9.70
2017-10-05T08:43:35.747Z,9.60
2017-10-05T08:46:02.527Z,9.50
2017-10-05T08:48:29.367Z,9.50
2017-10-05T08:50:56.674Z,9.40
2017-10-05T08:53:23.472Z,9.40
2017-10-05T08:55:50.251Z,9.50
2017-10-05T08:58:16.935Z,9.40
2017-10-05T09:00:43.555Z,9.50
2017-10-05T09:03:10.261Z,9.50
2017-10-05T09:05:37.139Z,9.50
2017-10-05T09:08:04.187Z,9.50
2017-10-05T09:10:31.515Z,9.50
2017-10-05T09:12:58.359Z,9.50
2017-10-05T09:15:24.987Z,9.50
2017-10-05T09:17:51.625Z,9.50
2017-10-05T09:20:18.324Z,9.50
2017-10-05T09:22:45.948Z,9.40
2017-10-05T09:25:12.668Z,9.40
2017-10-05T09:27:39.413Z,9.30
2017-10-05T09:30:07.511Z,9.30
2017-10-05T09:32:34.225Z,9.20
2017-10-05T09:35:00.782Z,9.30
2017-10-05T09:37:27.316Z,9.30
2017-10-05T09:39:53.959Z,9.30
2017-10-05T09:42:20.682Z,9.30
2017-10-05T09:44:47.288Z,9.30
2017-10-05T09:47:14.071Z,9.30
2017-10-05T09:49:40.671Z,9.30
2017-10-05T09:52:07.361Z,9.30
2017-10-05T09:54:34.121Z,9.30
2017-10-05T09:57:00.935Z,9.20
2017-10-05T09:59:27.597Z,9.30
2017-10-05T10:01:54.476Z,9.30
2017-10-05T10:04:21.131Z,9.30
2017-10-05T10:06:47.990Z,9.20
2017-10-05T10:09:14.832Z,9.30
2017-10-05T10:11:42.168Z,9.30
2017-10-05T10:14:09.439Z,9.30
2017-10-05T10:16:36.250Z,9.30
2017-10-05T10:19:02.912Z,9.30
2017-10-05T10:24:06.528Z,9.20
2017-10-05T10:26:33.352Z,9.20
2017-10-05T10:29:00.040Z,9.30
2017-10-05T10:31:27.137Z,9.20
2017-10-05T10:33:54.218Z,9.20
2017-10-05T10:36:21.108Z,9.20
2017-10-05T10:38:47.718Z,9.20
2017-10-05T10:41:14.429Z,9.10
2017-10-05T10:43:41.333Z,9.10
2017-10-05T10:46:08.161Z,9.20
2017-10-05T10:48:35.016Z,9.10
2017-10-05T10:51:01.635Z,9.20
2017-10-05T10:53:28.529Z,9.20
2017-10-05T10:55:55.320Z,9.20
2017-10-05T10:58:22.487Z,9.10
2017-10-05T11:00:49.948Z,9.10
2017-10-05T11:03:17.365Z,9.00
2017-10-05T11:05:44.121Z,9.00
2017-10-05T11:08:10.700Z,9.10
2017-10-05T11:10:37.317Z,9.10
2017-10-05T11:13:03.986Z,9.10
2017-10-05T11:15:31.526Z,9.10
2017-10-05T11:17:58.205Z,9.10
2017-10-05T11:20:25.042Z,9.10
2017-10-05T11:22:51.977Z,9.00
2017-10-05T11:25:18.632Z,9.10
2017-10-05T11:27:45.997Z,9.10
2017-10-05T11:30:12.580Z,9.00
2017-10-05T11:32:39.247Z,9.10
2017-10-05T11:35:05.764Z,9.20
2017-10-05T11:37:32.793Z,9.10
2017-10-05T11:40:00.601Z,9.00
2017-10-05T11:42:27.279Z,9.00
2017-10-05T11:44:54.522Z,8.90
2017-10-05T11:47:21.201Z,8.90
2017-10-05T11:49:47.869Z,8.80
2017-10-05T11:52:15.092Z,8.80
2017-10-05T11:54:41.867Z,8.80
2017-10-05T11:57:08.438Z,8.80
2017-10-05T11:59:36.120Z,8.70
2017-10-05T12:02:03.978Z,8.70
2017-10-05T12:04:30.572Z,8.70
2017-10-05T12:06:58.487Z,8.70
2017-10-05T12:09:25.454Z,8.60
2017-10-05T12:11:52.185Z,8.60
2017-10-05T12:14:20.161Z,8.60
2017-10-05T12:16:48.807Z,8.70
2017-10-05T12:19:15.416Z,8.60
2017-10-05T12:21:43.701Z,8.70
2017-10-05T12:24:10.845Z,8.70
2017-10-05T12:26:38.464Z,8.70
2017-10-05T12:29:06.769Z,8.70
2017-10-05T12:31:35.120Z,8.70
2017-10-05T12:34:02.780Z,8.70
2017-10-05T12:36:29.435Z,8.70
2017-10-05T12:38:56.257Z,8.70
2017-10-05T12:41:23.728Z,8.70
2017-10-05T12:43:51.071Z,8.70
2017-10-05T12:46:19.759Z,8.70
2017-10-05T12:48:48.672Z,8.80
2017-10-05T12:51:15.606Z,8.70
2017-10-05T12:53:42.342Z,8.70
2017-10-05T12:56:09.868Z,8.70
2017-10-05T12:58:36.816Z,8.70
2017-10-05T13:01:04.417Z,8.60
2017-10-05T13:03:31.039Z,8.60
2017-10-05T13:05:59.166Z,8.70
2017-10-05T13:08:25.759Z,8.70
2017-10-05T13:10:52.523Z,8.60
2017-10-05T13:13:21.180Z,8.50
2017-10-05T13:15:49.196Z,8.30
2017-10-05T13:18:15.888Z,8.20
2017-10-05T13:20:43.438Z,8.20
2017-10-05T13:23:12.943Z,8.30
2017-10-05T13:25:39.655Z,8.30
2017-10-05T13:28:06.434Z,8.10
2017-10-05T13:30:33.006Z,8.10
2017-10-05T13:32:59.627Z,8.20
2017-10-05T13:35:26.664Z,8.10
2017-10-05T13:37:53.278Z,8.10
2017-10-05T13:40:20.305Z,8.10
2017-10-05T13:42:47.016Z,8.00
2017-10-05T13:45:13.739Z,8.10
2017-10-05T13:47:40.325Z,8.20
2017-10-05T13:50:07.355Z,8.30
2017-10-05T13:52:34.797Z,8.50
2017-10-05T13:55:01.415Z,8.50
2017-10-05T13:57:28.909Z,8.90
2017-10-05T13:59:55.446Z,8.90
2017-10-05T14:02:22.075Z,8.90
2017-10-05T14:04:48.879Z,8.90
2017-10-05T14:07:15.641Z,8.90
2017-10-05T14:09:42.462Z,8.90
2017-10-05T14:12:16.258Z,8.90
2017-10-05T14:14:43.186Z,9.00
2017-10-05T14:17:09.783Z,9.00
2017-10-05T14:19:36.499Z,9.10
2017-10-05T14:22:03.277Z,9.10
2017-10-05T14:24:30.051Z,9.20
2017-10-05T14:26:56.748Z,9.10
2017-10-05T14:29:23.333Z,9.10
2017-10-05T14:31:49.967Z,9.20
2017-10-05T14:34:16.677Z,9.20
2017-10-05T14:36:43.363Z,9.20
2017-10-05T14:39:10.058Z,9.20
2017-10-05T14:41:37.070Z,9.20
2017-10-05T14:44:03.643Z,9.20
2017-10-05T14:46:30.308Z,9.20
2017-10-05T14:48:57.057Z,9.30
2017-10-05T14:51:23.540Z,9.40
2017-10-05T14:53:50.159Z,9.50
2017-10-05T14:56:16.863Z,9.60
2017-10-05T14:58:43.491Z,9.70
2017-10-05T15:01:10.241Z,10.00
2017-10-05T15:03:37.042Z,10.20
2017-10-05T15:06:03.623Z,10.20
2017-10-05T15:08:30.920Z,10.40
2017-10-05T15:10:57.523Z,10.40
2017-10-05T15:13:24.879Z,10.50
2017-10-05T15:15:51.628Z,10.50
2017-10-05T15:18:18.733Z,10.50
2017-10-05T15:20:45.427Z,10.70
2017-10-05T15:23:12.776Z,10.60
2017-10-05T15:25:39.718Z,10.60
2017-10-05T15:28:06.319Z,10.60
2017-10-05T15:30:32.900Z,10.70
2017-10-05T15:32:59.548Z,10.80
2017-10-05T15:35:26.278Z,10.80
2017-10-05T15:37:53.251Z,10.90
2017-10-05T15:40:20.097Z,11.00
2017-10-05T15:42:46.624Z,11.10
2017-10-05T15:45:13.344Z,11.20
2017-10-05T15:47:40.087Z,11.40
2017-10-05T15:50:07.531Z,11.40
2017-10-05T15:52:34.179Z,11.40
2017-10-05T15:55:00.757Z,11.50
2017-10-05T15:57:27.367Z,11.60
2017-10-05T15:59:54.092Z,11.60
2017-10-05T16:02:21.415Z,11.50
2017-10-05T16:04:48.491Z,11.50
2017-10-05T16:07:15.311Z,11.50
2017-10-05T16:09:42.811Z,11.40
2017-10-05T16:12:09.626Z,11.30
2017-10-05T16:14:36.640Z,11.40
2017-10-05T16:17:03.575Z,11.30
2017-10-05T16:19:30.242Z,11.30
2017-10-05T16:21:56.829Z,11.20
2017-10-05T16:24:24.706Z,11.20
2017-10-05T16:26:51.372Z,11.30
2017-10-05T16:29:18.716Z,11.40
2017-10-05T16:31:45.552Z,11.40
2017-10-05T16:34:12.142Z,11.50
2017-10-05T16:36:39.022Z,11.50
2017-10-05T16:39:07.489Z,11.40
2017-10-05T16:41:34.181Z,11.40
2017-10-05T16:44:01.345Z,11.50
2017-10-05T16:46:28.035Z,11.40
2017-10-05T16:48:54.996Z,11.40
2017-10-05T16:51:21.817Z,11.50
2017-10-05T16:53:48.643Z,11.40
2017-10-05T16:56:16.082Z,11.50
2017-10-05T16:58:43.732Z,11.40
2017-10-05T17:01:10.644Z,11.40
2017-10-05T17:03:37.295Z,11.40
2017-10-05T17:06:04.141Z,11.50
2017-10-05T17:08:30.968Z,11.50
2017-10-05T17:10:57.879Z,11.50
2017-10-05T17:13:24.562Z,11.50
2017-10-05T17:15:51.403Z,11.50
2017-10-05T17:18:18.084Z,11.50
2017-10-05T17:20:44.941Z,11.60
2017-10-05T17:23:11.786Z,11.60
2017-10-05T17:25:38.617Z,11.50
2017-10-05T17:28:05.338Z,11.30
2017-10-05T17:30:32.206Z,11.20
2017-10-05T17:32:59.443Z,11.20
2017-10-05T17:35:26.204Z,11.30
2017-10-05T17:37:52.751Z,11.40
2017-10-05T17:40:19.755Z,11.50
2017-10-05T17:42:46.498Z,11.50
2017-10-05T17:45:13.070Z,11.40
2017-10-05T17:47:39.780Z,11.40
2017-10-05T17:50:07.855Z,11.50
2017-10-05T17:52:34.689Z,11.50
2017-10-05T17:55:01.314Z,11.50
2017-10-05T17:57:28.040Z,11.50
2017-10-05T17:59:54.788Z,11.40
2017-10-05T18:02:21.567Z,11.50
2017-10-05T18:04:48.239Z,11.50
2017-10-05T18:07:15.508Z,11.60
2017-10-05T18:09:42.496Z,11.60
2017-10-05T18:12:09.160Z,11.70
2017-10-05T18:14:35.842Z,11.80
2017-10-05T18:17:03.820Z,11.80
2017-10-05T18:19:30.509Z,11.80
2017-10-05T18:21:57.376Z,11.80
2017-10-05T18:24:24.200Z,11.70
2017-10-05T18:26:51.766Z,11.70
2017-10-05T18:29:19.419Z,11.80
2017-10-05T18:31:46.936Z,11.90
2017-10-05T18:34:14.339Z,11.80
2017-10-05T18:36:41.871Z,11.80
2017-10-05T18:39:09.144Z,11.80
2017-10-05T18:41:35.960Z,11.70
2017-10-05T18:44:02.612Z,11.70
2017-10-05T18:46:29.464Z,11.80
2017-10-05T18:48:56.905Z,11.80
2017-10-05T18:51:23.707Z,11.80
2017-10-05T18:53:50.346Z,11.70
2017-10-05T18:56:16.954Z,11.60
2017-10-05T18:58:43.864Z,11.60
2017-10-05T19:01:10.604Z,11.60
2017-10-05T19:03:40.942Z,11.70
2017-10-05T19:06:09.040Z,11.70
2017-10-05T19:08:35.788Z,11.70
2017-10-05T19:11:02.831Z,11.80
2017-10-05T19:13:29.982Z,11.80
2017-10-05T19:15:57.229Z,11.90
2017-10-05T19:18:24.252Z,11.80
2017-10-05T19:20:54.362Z,11.60
2017-10-05T19:23:22.879Z,11.70
2017-10-05T19:25:49.626Z,11.70
2017-10-05T19:28:16.612Z,11.70
2017-10-05T19:30:43.971Z,11.70
2017-10-05T19:33:10.756Z,11.60
2017-10-05T19:35:37.518Z,11.80
2017-10-05T19:38:04.316Z,11.70
2017-10-05T19:40:30.974Z,11.70
2017-10-05T19:42:58.546Z,11.70
2017-10-05T19:45:25.418Z,11.70
2017-10-05T19:47:52.155Z,11.70
2017-10-05T19:50:19.071Z,11.70
2017-10-05T19:52:46.631Z,11.70
2017-10-05T19:55:13.826Z,11.70
2017-10-05T19:57:41.613Z,11.80
2017-10-05T20:00:08.455Z,11.80
2017-10-05T20:02:35.113Z,11.80
2017-10-05T20:05:01.897Z,11.80
2017-10-05T20:07:28.587Z,11.70
2017-10-05T20:09:55.285Z,11.70
2017-10-05T20:12:22.118Z,11.60
2017-10-05T20:18:09.936Z,11.50
2017-10-05T20:20:42.749Z,11.40
2017-10-05T20:23:25.647Z,11.40
2017-10-05T20:29:04.408Z,11.10
2017-10-05T20:31:35.017Z,10.90
2017-10-05T20:34:01.748Z,10.70
2017-10-05T20:36:28.503Z,10.60
2017-10-05T20:38:56.130Z,10.40
2017-10-05T20:41:23.698Z,10.30
2017-10-05T20:43:50.391Z,10.30
2017-10-05T20:46:17.148Z,10.20
2017-10-05T20:48:43.952Z,10.20
2017-10-05T20:51:12.329Z,10.20
2017-10-05T20:53:39.002Z,10.20
2017-10-05T20:56:05.822Z,10.20
2017-10-05T20:58:32.651Z,10.30
2017-10-05T21:00:59.272Z,10.20
2017-10-05T21:03:26.111Z,10.20
2017-10-05T21:05:52.845Z,10.20
2017-10-05T21:08:19.494Z,10.20
2017-10-05T21:10:46.343Z,10.10
2017-10-05T21:13:13.112Z,10.10
2017-10-05T21:15:39.800Z,10.10
2017-10-05T21:18:06.481Z,10.10
2017-10-05T21:20:33.163Z,10.00
2017-10-05T21:22:59.777Z,10.00
2017-10-05T21:25:26.439Z,9.80
2017-10-05T21:27:53.533Z,9.80
2017-10-05T21:30:20.334Z,9.90
2017-10-05T21:32:47.940Z,9.90
2017-10-05T21:35:15.468Z,9.90
2017-10-05T21:37:42.729Z,9.90
2017-10-05T21:40:09.487Z,10.00
2017-10-05T21:42:36.113Z,10.00
2017-10-05T21:45:05.681Z,10.20
2017-10-05T21:47:32.932Z,10.10
2017-10-05T21:49:59.724Z,10.10
2017-10-05T21:52:26.827Z,10.20
2017-10-05T21:54:53.710Z,10.20
2017-10-05T21:57:21.035Z,10.30
2017-10-05T21:59:48.377Z,10.20
2017-10-05T22:02:15.114Z,10.30
2017-10-05T22:04:42.404Z,10.20
2017-10-05T22:07:09.252Z,10.20
2017-10-05T22:09:36.063Z,10.20
2017-10-05T22:12:02.731Z,10.20
2017-10-05T22:14:30.116Z,10.20
2017-10-05T22:16:56.710Z,10.20
2017-10-05T22:19:23.710Z,10.20
2017-10-05T22:21:51.022Z,10.30
2017-10-05T22:24:17.695Z,10.20
2017-10-05T22:26:44.344Z,10.30
2017-10-05T22:29:11.950Z,10.20
2017-10-05T22:31:39.379Z,10.10
2017-10-05T22:34:06.482Z,10.00
2017-10-05T22:36:33.135Z,10.00
2017-10-05T22:38:59.875Z,9.90
2017-10-05T22:41:27.036Z,9.80
2017-10-05T22:43:53.712Z,10.00
2017-10-05T22:46:20.503Z,10.00
2017-10-05T22:48:47.428Z,10.00
2017-10-05T22:51:14.311Z,10.00
2017-10-05T22:53:41.837Z,9.80
2017-10-05T22:56:08.634Z,9.80
2017-10-05T22:58:35.186Z,9.80
2017-10-05T23:01:02.020Z,9.80
2017-10-05T23:03:28.748Z,9.80
2017-10-05T23:05:55.565Z,9.70
2017-10-05T23:08:22.244Z,9.70
2017-10-05T23:10:49.003Z,9.60
2017-10-05T23:13:15.841Z,9.70
2017-10-05T23:15:42.580Z,9.80
2017-10-05T23:18:10.446Z,10.00
2017-10-05T23:20:37.007Z,10.00
2017-10-05T23:23:04.035Z,10.20
2017-10-05T23:25:31.150Z,10.20
2017-10-05T23:27:57.778Z,10.30
2017-10-05T23:30:24.887Z,10.40
2017-10-05T23:32:51.429Z,10.40
2017-10-05T23:35:17.982Z,10.50
2017-10-05T23:37:44.666Z,10.50
2017-10-05T23:40:11.511Z,10.60
2017-10-05T23:42:38.178Z,10.60
2017-10-05T23:45:07.719Z,10.60
2017-10-05T23:47:34.414Z,10.60
2017-10-05T23:50:01.274Z,10.50
2017-10-05T23:52:27.974Z,10.40
2017-10-05T23:54:54.916Z,10.40
2017-10-05T23:57:21.405Z,10.40
2017-10-05T23:59:48.284Z,10.40
